Time;durP1;ratioP1;P1;durP2;ratioP2;P2;SDS_P1;SDS_P2;PMS_P1;PMS_P2;Temp;Humidity;BMP_temperature;BMP_pressure;BME280_temperature;BME280_humidity;BME280_pressure;Samples;Min_cycle;Max_cycle;Signal;HPM_P1;HPM_P2
2022/03/10 00:01:14;;;;;;;1.50;1.30;;;6.90;64.20;;;;;;5051188;28;20619;-73
2022/03/10 00:03:40;;;;;;;1.50;1.40;;;6.90;64.40;;;;;;5048435;28;20485;-73
2022/03/10 00:06:09;;;;;;;1.50;1.30;;;6.90;64.50;;;;;;5051997;28;20953;-73
2022/03/10 00:08:36;;;;;;;1.50;1.40;;;6.80;64.50;;;;;;5033730;28;20566;-73
2022/03/10 00:11:03;;;;;;;2.03;1.93;;;6.80;64.40;;;;;;5054494;28;20757;-73
2022/03/10 00:13:31;;;;;;;2.17;1.97;;;6.80;64.50;;;;;;5048543;28;20465;-73
2022/03/10 00:15:59;;;;;;;1.50;1.30;;;6.70;64.70;;;;;;5049373;28;20516;-73
2022/03/10 00:18:25;;;;;;;5.77;5.43;;;6.70;65.20;;;;;;5053121;28;20835;-73
2022/03/10 00:20:52;;;;;;;3.20;1.83;;;6.70;65.20;;;;;;5049330;28;20490;-73
2022/03/10 00:23:20;;;;;;;1.47;1.30;;;6.60;65.40;;;;;;5042550;28;20873;-73
2022/03/10 00:25:47;;;;;;;1.50;1.30;;;6.60;65.70;;;;;;5054855;28;20466;-73
2022/03/10 00:28:14;;;;;;;2.63;2.43;;;6.50;65.90;;;;;;5017651;28;20482;-73
2022/03/10 00:30:41;;;;;;;1.47;1.20;;;6.50;65.90;;;;;;5048002;28;20474;-73
2022/03/10 00:33:07;;;;;;;1.50;1.40;;;6.50;66.10;;;;;;5047705;28;20454;-73
2022/03/10 00:35:34;;;;;;;1.50;1.30;;;6.50;66.50;;;;;;5052170;28;20454;-73
2022/03/10 00:38:01;;;;;;;3.20;3.00;;;6.50;66.40;;;;;;5050062;28;20532;-73
2022/03/10 00:40:30;;;;;;;1.50;1.30;;;6.40;66.20;;;;;;5046409;28;20493;-73
2022/03/10 00:42:57;;;;;;;1.50;1.30;;;6.40;66.70;;;;;;5049964;28;20481;-73
2022/03/10 00:45:25;;;;;;;1.50;1.40;;;6.40;66.90;;;;;;5049241;28;20513;-73
2022/03/10 00:47:52;;;;;;;1.50;1.27;;;6.40;67.10;;;;;;5047883;28;20459;-73
2022/03/10 00:50:20;;;;;;;1.50;1.30;;;6.30;66.90;;;;;;5052172;28;20489;-73
2022/03/10 00:52:48;;;;;;;2.80;2.60;;;6.30;67.20;;;;;;5050699;28;20462;-73
2022/03/10 00:55:18;;;;;;;1.50;1.30;;;6.20;67.50;;;;;;5047850;28;20462;-73
2022/03/10 00:57:46;;;;;;;1.50;1.30;;;6.20;67.60;;;;;;5049111;28;20465;-73
2022/03/10 01:00:13;;;;;;;1.50;1.20;;;6.20;68.20;;;;;;5046237;28;20893;-73
2022/03/10 01:02:40;;;;;;;1.50;1.30;;;6.20;68.20;;;;;;5048607;28;20465;-73
2022/03/10 01:05:08;;;;;;;1.50;1.30;;;6.20;68.40;;;;;;5057042;28;20485;-73
2022/03/10 01:07:35;;;;;;;1.50;1.30;;;6.10;68.80;;;;;;5044895;28;20462;-73
2022/03/10 01:10:02;;;;;;;1.50;1.30;;;6.10;68.80;;;;;;5056102;28;20508;-73
2022/03/10 01:12:29;;;;;;;1.50;1.30;;;6.10;69.20;;;;;;5059096;28;20489;-73
2022/03/10 01:14:57;;;;;;;1.50;1.40;;;6.10;69.30;;;;;;5054969;28;20996;-73
2022/03/10 01:17:24;;;;;;;1.50;1.30;;;6.00;69.20;;;;;;5051515;28;20458;-73
2022/03/10 01:19:51;;;;;;;1.50;1.30;;;6.00;69.70;;;;;;5054802;28;20493;-73
2022/03/10 01:22:18;;;;;;;1.50;1.40;;;5.90;69.80;;;;;;5056653;28;20465;-73
2022/03/10 01:24:46;;;;;;;1.50;1.30;;;5.90;69.70;;;;;;5055033;28;20512;-73
2022/03/10 01:27:12;;;;;;;1.50;1.30;;;5.80;69.90;;;;;;5052178;28;20534;-73
2022/03/10 01:29:39;;;;;;;1.50;1.30;;;5.70;70.00;;;;;;5052505;28;20458;-73
2022/03/10 01:32:08;;;;;;;3.10;2.90;;;5.60;70.20;;;;;;5052484;28;20942;-73
2022/03/10 01:34:35;;;;;;;1.50;1.40;;;5.60;70.30;;;;;;5054761;28;20522;-73
2022/03/10 01:37:02;;;;;;;1.50;1.27;;;5.50;70.40;;;;;;5062255;28;20855;-74
2022/03/10 01:39:32;;;;;;;1.50;1.30;;;5.40;70.40;;;;;;5054398;28;20489;-74
2022/03/10 01:41:59;;;;;;;1.50;1.30;;;5.40;71.10;;;;;;5056373;28;20473;-73
2022/03/10 01:44:26;;;;;;;1.50;1.30;;;5.40;70.90;;;;;;5056029;28;20510;-73
2022/03/10 01:46:53;;;;;;;1.50;1.30;;;5.30;71.40;;;;;;5051910;28;20489;-73
2022/03/10 01:49:21;;;;;;;1.50;1.30;;;5.30;72.10;;;;;;5050633;28;20458;-73
2022/03/10 01:51:48;;;;;;;1.50;1.40;;;5.20;71.90;;;;;;5050151;28;20458;-73
2022/03/10 01:54:15;;;;;;;1.50;1.40;;;5.20;72.20;;;;;;5053898;28;20454;-73
2022/03/10 01:56:42;;;;;;;1.60;1.50;;;5.20;71.80;;;;;;5052201;28;20459;-73
2022/03/10 01:59:10;;;;;;;1.50;1.40;;;5.20;72.10;;;;;;5052833;28;20462;-73
2022/03/10 02:01:37;;;;;;;1.50;1.30;;;5.10;72.30;;;;;;5043304;28;20485;-73
2022/03/10 02:04:04;;;;;;;1.50;1.40;;;5.10;72.20;;;;;;5060708;28;20489;-73
2022/03/10 02:06:33;;;;;;;1.50;1.30;;;5.00;72.90;;;;;;5050552;28;20492;-73
2022/03/10 02:11:44;;;;;;;1.50;1.33;;;4.80;73.20;;;;;;5050347;28;20575;-73
2022/03/10 02:19:39;;;;;;;1.50;1.30;;;4.50;73.70;;;;;;5042629;28;20441;-73
2022/03/10 02:22:10;;;;;;;1.50;1.40;;;4.40;74.70;;;;;;5050900;28;20458;-73
2022/03/10 02:24:37;;;;;;;1.50;1.23;;;4.30;74.50;;;;;;5051399;28;21032;-73
2022/03/10 02:27:14;;;;;;;1.50;1.30;;;4.30;74.90;;;;;;5047533;28;20492;-73
2022/03/10 02:29:42;;;;;;;1.50;1.30;;;4.20;75.00;;;;;;5046172;28;21355;-73
2022/03/10 02:32:09;;;;;;;1.60;1.50;;;4.10;75.30;;;;;;5038892;28;20559;-74
2022/03/10 02:34:36;;;;;;;1.80;1.70;;;4.10;75.50;;;;;;5048017;28;20454;-73
2022/03/10 02:37:04;;;;;;;1.50;1.40;;;4.00;75.60;;;;;;5061739;28;20499;-73
2022/03/10 02:39:32;;;;;;;1.50;1.30;;;4.00;76.70;;;;;;5055464;28;20458;-73
2022/03/10 02:41:59;;;;;;;1.53;1.43;;;4.00;76.20;;;;;;5051689;28;20463;-73
2022/03/10 02:44:25;;;;;;;1.50;1.40;;;3.90;76.70;;;;;;5053106;28;20501;-73
2022/03/10 02:46:52;;;;;;;1.60;1.40;;;3.90;76.60;;;;;;5042536;28;20859;-72
2022/03/10 02:49:19;;;;;;;1.50;1.40;;;3.90;77.40;;;;;;5052759;28;20473;-73
2022/03/10 02:51:46;;;;;;;1.50;1.40;;;3.90;77.40;;;;;;5038323;28;20493;-73
2022/03/10 02:54:13;;;;;;;1.50;1.40;;;3.90;77.60;;;;;;5037437;28;20471;-73
2022/03/10 02:56:41;;;;;;;1.50;1.40;;;4.00;77.60;;;;;;5054008;28;20462;-72
2022/03/10 02:59:08;;;;;;;1.60;1.50;;;4.10;77.00;;;;;;5049492;28;20466;-73
2022/03/10 03:01:35;;;;;;;1.50;1.40;;;4.30;77.10;;;;;;5048585;28;20558;-73
2022/03/10 03:04:02;;;;;;;1.50;1.40;;;4.40;76.70;;;;;;5056732;28;20873;-73
2022/03/10 03:06:28;;;;;;;1.60;1.50;;;4.50;76.00;;;;;;5057469;28;20469;-73
2022/03/10 03:08:55;;;;;;;1.57;1.47;;;4.50;75.80;;;;;;5050345;28;20469;-73
2022/03/10 03:11:22;;;;;;;2.27;2.07;;;4.60;75.60;;;;;;5036422;28;20481;-73
2022/03/10 03:13:50;;;;;;;1.50;1.30;;;4.70;75.70;;;;;;5048103;28;20470;-73
2022/03/10 03:16:17;;;;;;;1.50;1.40;;;4.70;75.90;;;;;;5055265;28;20489;-73
2022/03/10 03:18:44;;;;;;;1.50;1.30;;;4.80;75.50;;;;;;5057555;28;20490;-73
2022/03/10 03:21:11;;;;;;;1.50;1.40;;;4.80;75.50;;;;;;5053468;28;21048;-73
2022/03/10 03:23:37;;;;;;;1.60;1.50;;;4.80;75.50;;;;;;5049955;28;20469;-73
2022/03/10 03:26:04;;;;;;;1.50;1.33;;;4.80;75.60;;;;;;5048511;28;20495;-73
2022/03/10 03:28:31;;;;;;;1.50;1.30;;;4.90;75.40;;;;;;5058724;28;20473;-73
2022/03/10 03:30:59;;;;;;;1.50;1.40;;;4.90;75.20;;;;;;5052871;28;20486;-73
2022/03/10 03:33:26;;;;;;;1.50;1.30;;;4.90;75.10;;;;;;5048739;28;20466;-73
2022/03/10 03:35:53;;;;;;;1.50;1.40;;;4.90;74.80;;;;;;5064813;28;20511;-73
2022/03/10 03:38:19;;;;;;;1.50;1.40;;;4.90;74.90;;;;;;5053625;28;20894;-73
2022/03/10 03:40:46;;;;;;;2.30;2.17;;;4.90;75.10;;;;;;5051657;28;20489;-73
2022/03/10 03:43:13;;;;;;;1.50;1.40;;;4.90;75.10;;;;;;5053680;28;20475;-73
2022/03/10 03:45:40;;;;;;;1.50;1.40;;;4.90;75.20;;;;;;5045223;28;20482;-75
2022/03/10 03:48:08;;;;;;;1.50;1.40;;;4.90;75.50;;;;;;5054127;28;20474;-73
2022/03/10 03:50:35;;;;;;;1.50;1.40;;;5.00;75.20;;;;;;5052428;28;20478;-73
2022/03/10 03:53:02;;;;;;;1.53;1.43;;;5.00;74.90;;;;;;5049663;28;20535;-73
2022/03/10 03:55:29;;;;;;;1.50;1.40;;;5.00;74.70;;;;;;5048424;28;20469;-73
2022/03/10 03:57:55;;;;;;;1.50;1.40;;;5.00;74.70;;;;;;5056649;28;20954;-73
2022/03/10 04:00:22;;;;;;;1.50;1.40;;;5.10;75.00;;;;;;5046148;28;20487;-73
2022/03/10 04:02:49;;;;;;;1.50;1.37;;;5.10;74.90;;;;;;5050913;28;20465;-73
2022/03/10 04:05:17;;;;;;;1.50;1.40;;;5.10;74.70;;;;;;5061961;28;20482;-73
2022/03/10 04:07:44;;;;;;;1.50;1.40;;;5.10;74.60;;;;;;5051912;28;20462;-73
2022/03/10 04:10:11;;;;;;;1.50;1.30;;;5.10;74.60;;;;;;5047285;28;20478;-73
2022/03/10 04:12:38;;;;;;;3.63;3.43;;;5.10;74.80;;;;;;5046922;28;20965;-73
2022/03/10 04:15:06;;;;;;;1.50;1.30;;;5.10;74.80;;;;;;5048626;28;20461;-73
2022/03/10 04:17:33;;;;;;;1.63;1.53;;;5.20;74.90;;;;;;5040183;28;20469;-73
2022/03/10 04:22:29;;;;;;;1.50;1.40;;;5.10;74.90;;;;;;5024963;28;20475;-73
2022/03/10 04:24:56;;;;;;;1.50;1.30;;;5.10;74.70;;;;;;5033626;28;20865;-74
2022/03/10 04:27:22;;;;;;;1.50;1.40;;;5.00;75.30;;;;;;5029862;28;20497;-74
2022/03/10 04:29:49;;;;;;;1.50;1.30;;;5.00;75.30;;;;;;5033437;28;20463;-73
2022/03/10 04:32:16;;;;;;;1.83;1.73;;;5.00;75.10;;;;;;5043259;28;20493;-75
2022/03/10 04:34:43;;;;;;;1.50;1.30;;;5.00;74.90;;;;;;5039560;28;20463;-74
2022/03/10 04:37:10;;;;;;;1.93;1.83;;;4.90;75.20;;;;;;5042000;28;20470;-73
2022/03/10 04:39:38;;;;;;;1.50;1.30;;;4.90;75.30;;;;;;5038233;28;20466;-72
2022/03/10 04:42:05;;;;;;;1.50;1.40;;;4.90;75.50;;;;;;5047457;28;20509;-75
2022/03/10 04:44:31;;;;;;;1.50;1.30;;;4.80;75.30;;;;;;5048596;28;20469;-74
2022/03/10 04:46:58;;;;;;;1.50;1.30;;;4.80;75.20;;;;;;5048663;28;20469;-73
2022/03/10 04:49:25;;;;;;;1.50;1.30;;;4.80;75.30;;;;;;5046868;28;20973;-75
2022/03/10 04:51:52;;;;;;;1.50;1.30;;;4.70;75.40;;;;;;5043095;28;20593;-73
2022/03/10 04:54:19;;;;;;;1.50;1.40;;;4.70;75.60;;;;;;5047389;28;20470;-72
2022/03/10 04:56:48;;;;;;;1.50;1.40;;;4.70;75.60;;;;;;5047616;28;20587;-75
2022/03/10 04:59:14;;;;;;;1.50;1.30;;;4.60;75.60;;;;;;5048085;28;20497;-76
2022/03/10 05:01:41;;;;;;;1.50;1.30;;;4.60;75.90;;;;;;5016378;28;20491;-77
2022/03/10 05:04:08;;;;;;;1.50;1.30;;;4.50;76.10;;;;;;5034141;28;20481;-74
2022/03/10 05:06:35;;;;;;;1.50;1.30;;;4.50;76.30;;;;;;5037239;28;20486;-73
2022/03/10 05:09:02;;;;;;;1.50;1.37;;;4.50;76.50;;;;;;5048414;28;20548;-75
2022/03/10 05:11:28;;;;;;;2.37;2.23;;;4.40;76.50;;;;;;5041341;28;20629;-74
2022/03/10 05:13:56;;;;;;;1.50;1.40;;;4.40;76.50;;;;;;5046222;28;20944;-73
2022/03/10 05:16:23;;;;;;;1.50;1.30;;;4.40;76.90;;;;;;5047821;28;20542;-72
2022/03/10 05:18:50;;;;;;;1.50;1.30;;;4.40;77.00;;;;;;5044837;28;20979;-73
2022/03/10 05:21:17;;;;;;;1.50;1.30;;;4.40;77.10;;;;;;5039998;28;20560;-72
2022/03/10 05:23:44;;;;;;;1.50;1.40;;;4.40;76.80;;;;;;5039070;28;20928;-74
2022/03/10 05:26:11;;;;;;;1.50;1.40;;;4.40;76.80;;;;;;5043834;28;20893;-74
2022/03/10 05:28:37;;;;;;;1.50;1.40;;;4.30;76.80;;;;;;5046409;28;20463;-76
2022/03/10 05:31:06;;;;;;;1.50;1.30;;;4.30;76.80;;;;;;5045185;28;20482;-74
2022/03/10 05:33:33;;;;;;;1.50;1.30;;;4.30;76.80;;;;;;5041626;28;20549;-76
2022/03/10 05:35:59;;;;;;;1.50;1.30;;;4.30;77.20;;;;;;5041704;28;20469;-75
2022/03/10 05:38:26;;;;;;;1.50;1.30;;;4.20;76.90;;;;;;5047413;28;20754;-71
2022/03/10 05:40:53;;;;;;;1.50;1.33;;;4.20;77.30;;;;;;5045780;28;20485;-73
2022/03/10 05:43:20;;;;;;;1.50;1.40;;;4.20;77.40;;;;;;5043438;28;20471;-76
2022/03/10 05:45:47;;;;;;;1.83;1.73;;;4.20;77.00;;;;;;5042387;28;20475;-73
2022/03/10 05:48:15;;;;;;;1.50;1.40;;;4.20;76.90;;;;;;5045858;28;20466;-72
2022/03/10 05:50:41;;;;;;;1.57;1.47;;;4.20;77.30;;;;;;5044450;28;20493;-76
2022/03/10 05:53:10;;;;;;;1.50;1.33;;;4.20;78.10;;;;;;5050252;28;20954;-73
2022/03/10 05:55:37;;;;;;;1.60;1.50;;;4.30;78.00;;;;;;5050995;28;20871;-75
2022/03/10 05:58:04;;;;;;;1.50;1.40;;;4.30;77.90;;;;;;5039538;28;20468;-75
2022/03/10 06:00:32;;;;;;;1.50;1.40;;;4.40;77.40;;;;;;5048203;28;20561;-76
2022/03/10 06:02:59;;;;;;;1.60;1.50;;;4.30;77.70;;;;;;5050293;28;20458;-74
2022/03/10 06:05:27;;;;;;;1.50;1.40;;;4.40;77.90;;;;;;5043103;28;20486;-72
2022/03/10 06:07:54;;;;;;;1.50;1.30;;;4.40;77.80;;;;;;5042500;28;20549;-72
2022/03/10 06:10:22;;;;;;;1.50;1.40;;;4.40;77.90;;;;;;5048386;28;21001;-72
2022/03/10 06:12:49;;;;;;;1.60;1.50;;;4.50;77.40;;;;;;5049198;28;20463;-71
2022/03/10 06:15:16;;;;;;;5.73;3.40;;;4.50;77.80;;;;;;5048959;28;20573;-73
2022/03/10 06:17:43;;;;;;;1.50;1.40;;;4.60;77.60;;;;;;5044428;28;20477;-73
2022/03/10 06:20:10;;;;;;;1.60;1.50;;;4.70;77.00;;;;;;5047839;28;20469;-73
2022/03/10 06:22:38;;;;;;;1.50;1.30;;;4.80;76.80;;;;;;5043739;28;20459;-71
2022/03/10 06:25:07;;;;;;;1.50;1.40;;;4.80;76.60;;;;;;5048671;28;20469;-74
2022/03/10 06:27:34;;;;;;;1.50;1.40;;;4.90;76.20;;;;;;5048923;28;20923;-70
2022/03/10 06:30:01;;;;;;;4.23;3.93;;;5.00;76.20;;;;;;5047124;28;20462;-71
2022/03/10 06:32:28;;;;;;;1.50;1.30;;;5.00;75.90;;;;;;5040333;28;20481;-70
2022/03/10 06:34:57;;;;;;;1.70;1.60;;;5.10;75.70;;;;;;5042274;28;20558;-72
2022/03/10 06:37:24;;;;;;;1.50;1.30;;;5.10;75.70;;;;;;5038165;28;20462;-73
2022/03/10 06:39:53;;;;;;;1.50;1.40;;;5.20;76.00;;;;;;5047293;28;20868;-72
2022/03/10 06:42:20;;;;;;;1.50;1.30;;;5.20;75.80;;;;;;5047620;28;20955;-72
2022/03/10 06:44:46;;;;;;;1.50;1.40;;;5.30;75.90;;;;;;5047303;28;20470;-75
2022/03/10 06:47:13;;;;;;;2.57;2.37;;;5.40;75.90;;;;;;5020549;28;20570;-75
2022/03/10 06:49:40;;;;;;;1.50;1.30;;;5.50;76.00;;;;;;5042876;28;20469;-73
2022/03/10 06:52:09;;;;;;;1.50;1.30;;;5.60;75.90;;;;;;5043336;28;20797;-73
2022/03/10 06:54:37;;;;;;;1.50;1.30;;;5.70;76.00;;;;;;5048085;28;20527;-70
2022/03/10 06:57:05;;;;;;;2.53;2.33;;;5.80;75.70;;;;;;5047804;28;20462;-73
2022/03/10 06:59:32;;;;;;;1.50;1.30;;;6.00;75.70;;;;;;5039468;28;20842;-72
2022/03/10 07:01:59;;;;;;;1.50;1.30;;;6.10;75.30;;;;;;5046280;28;20855;-72
2022/03/10 07:04:26;;;;;;;1.50;1.30;;;6.20;74.70;;;;;;5043830;28;20797;-73
2022/03/10 07:06:53;;;;;;;1.50;1.30;;;6.40;74.00;;;;;;5041629;28;20498;-72
2022/03/10 07:09:20;;;;;;;1.50;1.30;;;6.50;73.40;;;;;;5046589;28;20491;-71
2022/03/10 07:11:47;;;;;;;1.50;1.30;;;6.60;73.10;;;;;;5041259;28;20874;-73
2022/03/10 07:14:15;;;;;;;1.80;1.70;;;6.70;72.60;;;;;;5048850;28;20819;-71
2022/03/10 07:16:43;;;;;;;6.60;3.30;;;6.80;72.30;;;;;;5025078;28;20480;-73
2022/03/10 07:19:10;;;;;;;1.50;1.30;;;6.90;72.00;;;;;;5038672;28;20550;-74
2022/03/10 07:21:38;;;;;;;1.47;1.30;;;6.90;71.80;;;;;;5046464;28;20496;-71
2022/03/10 07:24:06;;;;;;;1.50;1.40;;;7.00;71.30;;;;;;5048226;28;20845;-72
2022/03/10 07:26:33;;;;;;;1.83;1.73;;;7.10;71.30;;;;;;5043904;28;20483;-71
2022/03/10 07:29:00;;;;;;;1.60;1.50;;;7.20;71.10;;;;;;5044024;28;20462;-71
2022/03/10 07:31:32;;;;;;;1.50;1.40;;;7.20;70.90;;;;;;5045168;28;20839;-72
2022/03/10 07:34:00;;;;;;;1.50;1.20;;;7.30;70.80;;;;;;5040122;28;20470;-73
2022/03/10 07:36:28;;;;;;;1.50;1.30;;;7.50;70.50;;;;;;5036676;28;20943;-70
2022/03/10 07:38:55;;;;;;;1.50;1.20;;;7.60;70.10;;;;;;5043223;28;20466;-70
2022/03/10 07:41:22;;;;;;;3.20;3.00;;;7.70;70.00;;;;;;5046484;28;20490;-72
2022/03/10 07:43:49;;;;;;;1.50;1.23;;;7.80;69.70;;;;;;5044316;28;20491;-72
2022/03/10 07:46:16;;;;;;;1.50;1.20;;;8.00;69.50;;;;;;5034446;28;20479;-71
2022/03/10 07:48:44;;;;;;;1.50;1.20;;;8.10;69.20;;;;;;5041335;28;20468;-72
2022/03/10 07:51:11;;;;;;;1.50;1.20;;;8.30;68.70;;;;;;5043158;28;20615;-71
2022/03/10 07:53:38;;;;;;;1.50;1.30;;;8.40;68.50;;;;;;5047964;28;20470;-72
2022/03/10 07:56:05;;;;;;;1.50;1.20;;;8.50;68.30;;;;;;5040777;28;20454;-73
2022/03/10 07:58:32;;;;;;;1.50;1.20;;;8.60;67.70;;;;;;5040615;28;20462;-72
2022/03/10 08:00:58;;;;;;;1.50;1.30;;;8.70;67.60;;;;;;5045829;28;20501;-72
2022/03/10 08:03:26;;;;;;;5.23;4.73;;;8.80;67.50;;;;;;5046752;28;20468;-72
2022/03/10 08:05:54;;;;;;;1.50;1.20;;;8.90;67.50;;;;;;5043473;28;20485;-72
2022/03/10 08:08:21;;;;;;;2.07;1.97;;;9.10;67.40;;;;;;5047458;28;20459;-73
2022/03/10 08:10:48;;;;;;;1.97;1.77;;;9.20;67.00;;;;;;5044544;28;20982;-72
2022/03/10 08:13:15;;;;;;;1.50;1.20;;;9.20;66.40;;;;;;5047352;28;20462;-72
2022/03/10 08:15:43;;;;;;;1.50;1.10;;;9.30;66.40;;;;;;5047162;28;20470;-73
2022/03/10 08:18:10;;;;;;;5.23;4.00;;;9.30;66.40;;;;;;5047599;28;20465;-71
2022/03/10 08:20:39;;;;;;;1.50;1.20;;;9.30;65.90;;;;;;5037966;28;20522;-72
2022/03/10 08:23:08;;;;;;;1.50;1.20;;;9.40;65.90;;;;;;5042061;28;20469;-70
2022/03/10 08:25:36;;;;;;;1.50;1.10;;;9.40;65.20;;;;;;5044333;28;20458;-73
2022/03/10 08:28:03;;;;;;;1.50;1.10;;;9.40;65.30;;;;;;5013850;28;20491;-72
2022/03/10 08:30:30;;;;;;;1.47;1.17;;;9.50;65.40;;;;;;5038242;28;20498;-73
2022/03/10 08:32:57;;;;;;;1.50;1.20;;;9.50;65.00;;;;;;5045381;28;20970;-71
2022/03/10 08:35:24;;;;;;;1.50;1.10;;;9.60;64.80;;;;;;5036722;28;21042;-70
2022/03/10 08:37:51;;;;;;;1.50;1.10;;;9.70;64.50;;;;;;5015905;28;20486;-70
2022/03/10 08:40:19;;;;;;;1.50;1.30;;;9.80;64.20;;;;;;5046065;28;20508;-72
2022/03/10 08:42:48;;;;;;;1.47;1.10;;;9.70;64.00;;;;;;5046776;28;20458;-72
2022/03/10 08:45:15;;;;;;;1.50;1.10;;;9.80;64.00;;;;;;5042414;28;20462;-72
2022/03/10 08:47:42;;;;;;;1.50;1.20;;;10.00;63.90;;;;;;5016872;28;20490;-70
2022/03/10 08:50:10;;;;;;;1.50;1.33;;;10.10;63.90;;;;;;5040189;28;20493;-71
2022/03/10 08:52:37;;;;;;;1.53;1.27;;;10.20;64.10;;;;;;5017853;28;20483;-70
2022/03/10 08:55:05;;;;;;;5.13;4.70;;;10.40;63.70;;;;;;5043869;28;20489;-70
2022/03/10 08:57:34;;;;;;;1.50;1.20;;;10.50;63.10;;;;;;5038142;28;20909;-72
2022/03/10 09:00:00;;;;;;;1.50;1.13;;;10.60;63.10;;;;;;5046047;28;20516;-73
2022/03/10 09:02:28;;;;;;;1.50;1.10;;;10.70;63.10;;;;;;5043784;28;20493;-72
2022/03/10 09:04:55;;;;;;;1.50;1.10;;;10.90;63.00;;;;;;5038805;28;20961;-73
2022/03/10 09:07:22;;;;;;;1.43;1.10;;;11.00;63.00;;;;;;5016734;28;20491;-72
2022/03/10 09:09:48;;;;;;;1.50;1.17;;;11.20;62.50;;;;;;5032979;28;20982;-73
2022/03/10 09:12:15;;;;;;;5.97;5.67;;;11.20;62.30;;;;;;5019755;28;20495;-74
2022/03/10 09:14:43;;;;;;;1.50;1.20;;;11.30;62.50;;;;;;5040140;28;20462;-71
2022/03/10 09:17:10;;;;;;;1.50;1.10;;;11.50;62.30;;;;;;5033667;28;20538;-72
2022/03/10 09:19:37;;;;;;;1.50;1.20;;;11.70;61.90;;;;;;5043077;28;20568;-71
2022/03/10 09:22:04;;;;;;;4.00;3.67;;;11.70;61.60;;;;;;5046078;28;20489;-70
2022/03/10 09:24:31;;;;;;;1.50;1.10;;;11.90;61.30;;;;;;5046920;28;20470;-72
2022/03/10 09:26:58;;;;;;;1.47;1.00;;;12.00;61.20;;;;;;5048559;28;20836;-70
2022/03/10 09:29:25;;;;;;;1.50;1.00;;;12.00;60.80;;;;;;5046472;28;20482;-73
2022/03/10 09:31:53;;;;;;;1.70;1.53;;;12.10;60.70;;;;;;5045149;28;20497;-73
2022/03/10 09:34:20;;;;;;;1.43;1.00;;;12.20;60.20;;;;;;5045740;28;20478;-72
2022/03/10 09:36:46;;;;;;;1.50;1.20;;;12.30;60.30;;;;;;5025200;28;20475;-70
2022/03/10 09:39:14;;;;;;;4.77;4.47;;;12.50;59.80;;;;;;5039448;28;20859;-72
2022/03/10 09:41:42;;;;;;;1.50;1.20;;;12.60;60.00;;;;;;5047308;28;20524;-73
2022/03/10 09:44:14;;;;;;;1.60;1.33;;;12.70;60.00;;;;;;5047073;28;20481;-72
2022/03/10 09:46:41;;;;;;;1.47;1.00;;;12.90;59.80;;;;;;5040064;28;20544;-72
2022/03/10 09:49:09;;;;;;;1.87;1.47;;;13.00;59.40;;;;;;5050965;28;20950;-71
2022/03/10 09:51:36;;;;;;;1.50;1.10;;;13.10;59.40;;;;;;5043005;28;20486;-72
2022/03/10 09:54:02;;;;;;;1.50;1.00;;;13.30;59.00;;;;;;5049636;28;20841;-73
2022/03/10 09:56:30;;;;;;;1.47;1.00;;;13.50;58.50;;;;;;5049522;28;20461;-72
2022/03/10 09:58:57;;;;;;;1.43;1.00;;;13.60;57.70;;;;;;5040380;28;20468;-70
2022/03/10 10:01:23;;;;;;;1.50;1.00;;;13.70;58.10;;;;;;5049583;28;20484;-72
2022/03/10 10:03:50;;;;;;;1.40;1.00;;;13.80;57.30;;;;;;5042906;28;20459;-73
2022/03/10 10:06:18;;;;;;;3.80;2.13;;;13.90;57.40;;;;;;5039102;28;20462;-72
2022/03/10 10:08:55;;;;;;;1.50;1.10;;;13.90;57.10;;;;;;5050174;28;20464;-71
2022/03/10 10:11:31;;;;;;;1.50;1.10;;;14.10;57.20;;;;;;5049131;28;20506;-72
2022/03/10 10:13:58;;;;;;;1.77;1.67;;;14.30;56.70;;;;;;5046101;28;20470;-71
2022/03/10 10:16:25;;;;;;;1.47;1.00;;;14.30;56.00;;;;;;5032495;28;20551;-72
2022/03/10 10:18:56;;;;;;;1.60;1.30;;;14.40;56.30;;;;;;5037759;28;20474;-70
2022/03/10 10:21:25;;;;;;;1.50;1.00;;;14.50;55.90;;;;;;5048245;28;20493;-72
2022/03/10 10:23:55;;;;;;;1.50;1.00;;;14.60;56.10;;;;;;5042961;28;20494;-71
2022/03/10 10:26:26;;;;;;;1.50;1.00;;;14.70;56.10;;;;;;5025060;28;20480;-70
2022/03/10 10:28:54;;;;;;;1.63;1.50;;;14.80;55.10;;;;;;5049471;28;20468;-72
2022/03/10 10:31:24;;;;;;;2.80;2.60;;;14.90;54.50;;;;;;5046415;28;20497;-72
2022/03/10 10:34:00;;;;;;;3.27;2.77;;;15.00;54.70;;;;;;5048041;28;20454;-72
2022/03/10 10:36:30;;;;;;;1.50;1.00;;;15.10;54.50;;;;;;5038659;28;20557;-72
2022/03/10 10:38:58;;;;;;;2.27;2.07;;;15.20;54.00;;;;;;5037274;28;20474;-72
2022/03/10 10:41:27;;;;;;;1.40;0.90;;;15.30;54.10;;;;;;5047632;28;20980;-72
2022/03/10 10:43:55;;;;;;;1.43;1.00;;;15.40;54.00;;;;;;5050321;28;20467;-72
2022/03/10 10:46:25;;;;;;;1.50;1.00;;;15.40;54.30;;;;;;5047855;28;20458;-71
2022/03/10 10:48:51;;;;;;;1.50;0.90;;;15.50;53.20;;;;;;5049516;28;20458;-73
2022/03/10 10:51:35;;;;;;;1.60;1.30;;;15.50;52.90;;;;;;5047316;28;21028;-72
2022/03/10 10:54:04;;;;;;;2.57;2.37;;;15.50;53.20;;;;;;5040565;28;20469;-72
2022/03/10 10:56:33;;;;;;;1.50;0.97;;;15.60;53.00;;;;;;5046098;28;21101;-72
2022/03/10 10:59:01;;;;;;;3.00;2.80;;;15.60;53.30;;;;;;5049420;28;20501;-72
2022/03/10 11:01:30;;;;;;;1.50;1.20;;;15.70;52.70;;;;;;5027408;28;20492;-71
2022/03/10 11:03:57;;;;;;;1.50;1.00;;;15.80;52.30;;;;;;5024996;28;20456;-73
2022/03/10 11:06:24;;;;;;;1.43;0.90;;;15.90;52.20;;;;;;5047330;28;20978;-72
2022/03/10 11:08:53;;;;;;;1.60;1.40;;;15.90;52.40;;;;;;5049602;28;20584;-72
2022/03/10 11:11:20;;;;;;;1.50;1.10;;;16.00;52.10;;;;;;5038406;28;20493;-73
2022/03/10 11:13:48;;;;;;;1.50;1.00;;;16.10;51.70;;;;;;5047336;28;20971;-72
2022/03/10 11:16:16;;;;;;;2.10;1.77;;;16.10;51.60;;;;;;5032386;28;20483;-72
2022/03/10 11:18:45;;;;;;;1.50;1.10;;;16.20;51.60;;;;;;5032709;28;20458;-73
2022/03/10 11:21:32;;;;;;;1.50;1.00;;;16.30;51.70;;;;;;5046605;28;20499;-72
2022/03/10 11:24:13;;;;;;;2.37;2.17;;;16.40;51.50;;;;;;5030881;28;20466;-72
2022/03/10 11:26:46;;;;;;;1.50;1.00;;;16.60;52.20;;;;;;5042068;28;20469;-71
2022/03/10 11:29:20;;;;;;;1.47;0.93;;;16.80;51.40;;;;;;5048759;28;20465;-73
2022/03/10 11:31:47;;;;;;;2.03;1.83;;;17.00;51.40;;;;;;5033437;28;20486;-71
2022/03/10 11:34:48;;;;;;;1.47;1.00;;;17.00;50.50;;;;;;5031086;28;20465;-72
2022/03/10 11:37:52;;;;;;;1.47;1.00;;;16.90;50.50;;;;;;5017204;28;20519;-72
2022/03/10 11:40:36;;;;;;;1.40;0.97;;;16.90;51.00;;;;;;5044950;28;20509;-72
2022/03/10 11:43:03;;;;;;;1.43;1.00;;;17.10;51.40;;;;;;5034369;28;20489;-73
2022/03/10 11:45:32;;;;;;;1.50;0.90;;;17.40;50.20;;;;;;5047566;28;20693;-71
2022/03/10 11:48:31;;;;;;;1.50;1.00;;;17.50;49.10;;;;;;5045629;28;20514;-71
2022/03/10 11:50:58;;;;;;;1.53;1.20;;;17.50;48.80;;;;;;5026662;28;20515;-72
2022/03/10 11:53:25;;;;;;;1.80;1.40;;;17.50;48.40;;;;;;5047224;28;20822;-72
2022/03/10 11:55:54;;;;;;;2.43;1.77;;;17.40;49.20;;;;;;5047066;28;20474;-73
2022/03/10 11:58:30;;;;;;;1.50;0.90;;;17.60;49.80;;;;;;5037004;28;20462;-72
2022/03/10 12:00:59;;;;;;;1.50;1.00;;;17.80;48.60;;;;;;5042854;28;20486;-72
2022/03/10 12:03:30;;;;;;;1.80;1.70;;;18.00;48.60;;;;;;5041943;28;20501;-71
2022/03/10 12:05:59;;;;;;;1.80;1.70;;;18.20;49.00;;;;;;5036113;28;20558;-71
2022/03/10 12:08:27;;;;;;;1.97;1.77;;;18.20;47.80;;;;;;5044453;28;20490;-72
2022/03/10 12:10:55;;;;;;;3.63;3.37;;;17.90;46.80;;;;;;5046000;28;20493;-72
2022/03/10 12:13:34;;;;;;;13.93;5.07;;;17.90;47.00;;;;;;5047459;28;20466;-72
2022/03/10 12:16:03;;;;;;;1.60;1.33;;;17.90;47.70;;;;;;5047694;28;20466;-70
2022/03/10 12:18:32;;;;;;;1.47;0.90;;;18.10;48.10;;;;;;5048474;28;20463;-72
2022/03/10 12:20:59;;;;;;;3.40;3.10;;;18.10;47.00;;;;;;5046051;28;20490;-72
2022/03/10 12:23:28;;;;;;;1.50;1.00;;;18.20;47.40;;;;;;5040788;28;20531;-72
2022/03/10 12:26:00;;;;;;;1.80;1.27;;;18.30;46.90;;;;;;5043383;28;20458;-73
2022/03/10 12:28:33;;;;;;;1.47;0.93;;;18.30;46.80;;;;;;5046959;28;20567;-71
2022/03/10 12:31:23;;;;;;;1.47;0.90;;;18.30;47.00;;;;;;5041255;28;21006;-70
2022/03/10 12:33:53;;;;;;;1.90;1.67;;;18.30;46.50;;;;;;5033240;28;20461;-71
2022/03/10 12:36:31;;;;;;;1.40;0.93;;;18.30;46.10;;;;;;5046150;28;20466;-71
2022/03/10 12:38:59;;;;;;;1.43;0.90;;;18.20;46.50;;;;;;5046098;28;20529;-71
2022/03/10 12:41:33;;;;;;;1.50;1.10;;;18.30;46.80;;;;;;5036204;28;20478;-72
2022/03/10 12:44:03;;;;;;;1.90;1.33;;;18.20;46.60;;;;;;5045318;28;20836;-72
2022/03/10 12:46:32;;;;;;;1.60;1.30;;;18.20;45.70;;;;;;5036835;28;20732;-72
2022/03/10 12:49:14;;;;;;;1.90;1.37;;;18.30;46.10;;;;;;5044467;28;20479;-71
2022/03/10 12:51:41;;;;;;;1.50;1.17;;;18.30;45.70;;;;;;5038208;28;20871;-73
2022/03/10 12:54:09;;;;;;;2.30;2.10;;;18.30;45.40;;;;;;5047285;28;20462;-69
2022/03/10 12:56:48;;;;;;;1.50;1.10;;;18.40;45.60;;;;;;5046612;28;20455;-71
2022/03/10 12:59:25;;;;;;;1.50;0.90;;;18.40;45.40;;;;;;5042081;28;20541;-72
2022/03/10 13:01:52;;;;;;;1.60;1.40;;;18.40;45.40;;;;;;5043818;28;20535;-69
2022/03/10 13:04:19;;;;;;;1.50;1.20;;;18.40;45.40;;;;;;5048206;28;20527;-75
2022/03/10 13:06:47;;;;;;;1.80;1.37;;;18.40;45.20;;;;;;5037947;28;20463;-72
2022/03/10 13:09:22;;;;;;;10.10;2.00;;;18.40;45.70;;;;;;5052022;28;20490;-75